Terminal Aerodrome Forecast
Issued by NWS

Home | Current Version | Previous Version | Graphics & Text | Print | Product List | Glossary Off
Versions: 1 2 3 4 5 6 7 8 9 10 11 12

000
FTUS43 KUNR 210500
TAFGCC
TAF
KGCC 210520Z 2106/2206 22014KT P6SM BKN100
     FM211800 26014KT P6SM BKN040
     FM220000 30022G32KT P6SM BKN040=

USA.gov is the U.S. government's official web portal to all federal, state and local government web resources and services.